Terminal Aerodrome Forecast
Issued by NWS Cleveland, OH

Home | Current Version | Previous Version | Text Only | Print | Product List | Glossary On
Versions: 1 2 3 4 5 6 7 8 9 10 11 12 13 14 15 16 17 18 19
857
FTUS41 KCLE 250531
TAFMFD
TAF
KMFD 250531Z 2506/2606 11011KT P6SM VCSH SCT009 OVC012
     FM251000 10010KT P6SM VCSH BKN009 OVC012
     FM251400 14010KT P6SM SCT009 OVC015
     FM251700 17006KT 6SM -SHRA SCT015 OVC020
     FM252100 25008KT 5SM -SHRA SCT007 OVC015
     FM260000 29007KT P6SM OVC007=

USA.gov is the U.S. government's official web portal to all federal, state and local government web resources and services.